UAL188 EDDH-KDEN
Flight info
| Callsign | UAL188 |
|---|---|
| Flight time | N/A |
| Altitude | 35000 |
| Route | ELSOB3G ELSOB Y348 OMWEG DCT ASMUS DCT INSUS/N0483F360 DCT GOLUM L975 LESRA DCT DOKEN DCT GOMOT DCT PIPAR DCT BRUCE DCT AMLAD DCT PIKIL/M084F380 DCT 5630N02000W 5730N03000W 5830N04000W 5930N05000W DCT URTAK/N0490F380 DCT LAKES DCT 5530N08000W/N0490F400 52N090W DCT GABOV DCT KP90A DCT KD78Y DCT NYTRO AALLE4 |
| Aircraft | B78X/H-SDE1E2E3FGHIJ2J3J4J5M1RWXY/LB1D1 |
Departure
| Time | 2026-05-06 19:44 |
|---|---|
| Airport | Hamburg Helmut Schmidt Airport (EDDH) |
Arrival
| Time | N/A |
|---|---|
| Airport | Denver International Airport (KDEN) |
| Time | Latitude | Longitude | Altitude | Speed | Heading |
|---|---|---|---|---|---|
| 2026-05-06 19:11 | 53.62847 | 9.99028 | 47 ft | 0 kts | 63° |
| 2026-05-06 19:26 | 53.62845 | 9.99021 | 49 ft | 1 kts | 63° |
| 2026-05-06 19:26 | 53.62840 | 9.99005 | 43 ft | 2 kts | 66° |
| 2026-05-06 19:27 | 53.62836 | 9.98987 | 42 ft | 2 kts | 70° |
| 2026-05-06 19:27 | 53.62831 | 9.98965 | 42 ft | 2 kts | 69° |
| 2026-05-06 19:27 | 53.62828 | 9.98942 | 43 ft | 2 kts | 99° |
| 2026-05-06 19:27 | 53.62830 | 9.98919 | 44 ft | 2 kts | 112° |
| 2026-05-06 19:28 | 53.62836 | 9.98897 | 42 ft | 2 kts | 98° |
| 2026-05-06 19:28 | 53.62838 | 9.98873 | 45 ft | 2 kts | 73° |
| 2026-05-06 19:28 | 53.62833 | 9.98851 | 42 ft | 2 kts | 50° |
| 2026-05-06 19:28 | 53.62831 | 9.98845 | 42 ft | 0 kts | 47° |
| 2026-05-06 19:32 | 53.62832 | 9.98847 | 42 ft | 0 kts | 47° |
| 2026-05-06 19:34 | 53.62834 | 9.98852 | 42 ft | 9 kts | 47° |
| 2026-05-06 19:34 | 53.62832 | 9.98974 | 42 ft | 9 kts | 148° |
| 2026-05-06 19:35 | 53.62777 | 9.98999 | 48 ft | 9 kts | 166° |
| 2026-05-06 19:35 | 53.62721 | 9.99033 | 49 ft | 9 kts | 157° |
| 2026-05-06 19:35 | 53.62662 | 9.99077 | 48 ft | 10 kts | 156° |
| 2026-05-06 19:35 | 53.62605 | 9.99138 | 50 ft | 10 kts | 136° |
| 2026-05-06 19:36 | 53.62586 | 9.99238 | 47 ft | 9 kts | 89° |
| 2026-05-06 19:36 | 53.62592 | 9.99342 | 50 ft | 9 kts | 83° |
| 2026-05-06 19:36 | 53.62603 | 9.99445 | 50 ft | 9 kts | 79° |
| 2026-05-06 19:36 | 53.62614 | 9.99551 | 47 ft | 9 kts | 79° |
| 2026-05-06 19:37 | 53.62627 | 9.99658 | 48 ft | 9 kts | 78° |
| 2026-05-06 19:37 | 53.62635 | 9.99708 | 49 ft | 0 kts | 73° |
| 2026-05-06 19:43 | 53.62641 | 9.99742 | 50 ft | 7 kts | 73° |
| 2026-05-06 19:43 | 53.62655 | 9.99818 | 48 ft | 6 kts | 70° |
| 2026-05-06 19:43 | 53.62681 | 9.99863 | 50 ft | 4 kts | 29° |
| 2026-05-06 19:43 | 53.62709 | 9.99867 | 49 ft | 3 kts | 352° |
| 2026-05-06 19:44 | 53.62768 | 9.99829 | 50 ft | 31 kts | 337° |
| 2026-05-06 19:44 | 53.63212 | 9.99447 | 48 ft | 111 kts | 333° |
| 2026-05-06 19:44 | 53.64100 | 9.98691 | 51 ft | 175 kts | 334° |
| 2026-05-06 19:44 | 53.65195 | 9.97744 | 905 ft | 179 kts | 336° |
| 2026-05-06 19:45 | 53.66432 | 9.96707 | 1365 ft | 210 kts | 337° |
| 2026-05-06 19:45 | 53.67755 | 9.95570 | 2355 ft | 215 kts | 337° |
| 2026-05-06 19:45 | 53.69103 | 9.94404 | 3372 ft | 219 kts | 337° |
| 2026-05-06 19:45 | 53.70410 | 9.93118 | 4374 ft | 225 kts | 320° |
| 2026-05-06 19:46 | 53.71227 | 9.90815 | 5285 ft | 238 kts | 289° |
| 2026-05-06 19:46 | 53.71201 | 9.87993 | 6214 ft | 247 kts | 257° |
| 2026-05-06 19:46 | 53.70694 | 9.85206 | 7192 ft | 250 kts | 252° |
| 2026-05-06 19:46 | 53.70101 | 9.82430 | 8211 ft | 252 kts | 251° |
| 2026-05-06 19:47 | 53.69527 | 9.79631 | 9134 ft | 257 kts | 253° |
| 2026-05-06 19:47 | 53.68963 | 9.76744 | 9847 ft | 261 kts | 253° |
| 2026-05-06 19:47 | 53.68386 | 9.73790 | 10019 ft | 267 kts | 253° |
| 2026-05-06 19:47 | 53.67798 | 9.70795 | 10125 ft | 271 kts | 252° |
| 2026-05-06 19:48 | 53.67189 | 9.67712 | 10515 ft | 284 kts | 252° |
| 2026-05-06 19:48 | 53.66691 | 9.64453 | 11295 ft | 291 kts | 270° |
| 2026-05-06 19:48 | 53.67049 | 9.61143 | 12232 ft | 294 kts | 295° |
| 2026-05-06 19:48 | 53.68273 | 9.58372 | 13132 ft | 301 kts | 321° |
| 2026-05-06 19:49 | 53.70171 | 9.56827 | 13892 ft | 311 kts | 348° |
| 2026-05-06 19:49 | 53.72333 | 9.56223 | 14644 ft | 318 kts | 351° |
| 2026-05-06 19:49 | 53.74558 | 9.55765 | 15439 ft | 324 kts | 352° |
| 2026-05-06 19:49 | 53.76787 | 9.55295 | 16246 ft | 329 kts | 351° |
| 2026-05-06 19:50 | 53.79071 | 9.54748 | 17099 ft | 333 kts | 350° |
| 2026-05-06 19:50 | 53.81352 | 9.53875 | 17930 ft | 336 kts | 338° |
| 2026-05-06 19:50 | 53.83493 | 9.52317 | 18670 ft | 339 kts | 333° |
| 2026-05-06 19:50 | 53.85633 | 9.50584 | 19368 ft | 343 kts | 333° |
| 2026-05-06 19:51 | 53.87862 | 9.49000 | 20103 ft | 348 kts | 337° |
| 2026-05-06 19:51 | 53.90157 | 9.47567 | 20799 ft | 352 kts | 338° |
| 2026-05-06 19:51 | 53.92461 | 9.46075 | 21501 ft | 356 kts | 336° |
| 2026-05-06 19:51 | 53.94767 | 9.44492 | 22183 ft | 359 kts | 336° |
| 2026-05-06 19:52 | 53.97098 | 9.42898 | 22879 ft | 362 kts | 336° |
| 2026-05-06 19:52 | 53.99437 | 9.41333 | 23433 ft | 369 kts | 336° |
| 2026-05-06 19:52 | 54.01875 | 9.39702 | 23766 ft | 380 kts | 336° |
| 2026-05-06 19:52 | 54.04358 | 9.38025 | 24225 ft | 386 kts | 336° |
| 2026-05-06 19:53 | 54.06869 | 9.36325 | 24754 ft | 389 kts | 336° |
| 2026-05-06 19:53 | 54.09358 | 9.34641 | 25343 ft | 391 kts | 336° |
| 2026-05-06 19:53 | 54.11892 | 9.32927 | 25912 ft | 391 kts | 336° |
| 2026-05-06 19:53 | 54.14431 | 9.31206 | 26544 ft | 392 kts | 335° |
| 2026-05-06 19:54 | 54.16976 | 9.29477 | 27146 ft | 393 kts | 335° |
| 2026-05-06 19:54 | 54.19522 | 9.27743 | 27729 ft | 393 kts | 335° |
| 2026-05-06 19:54 | 54.22067 | 9.26010 | 28350 ft | 393 kts | 335° |
| 2026-05-06 19:54 | 54.24590 | 9.24290 | 28933 ft | 393 kts | 335° |
| 2026-05-06 19:55 | 54.27134 | 9.22554 | 29536 ft | 393 kts | 335° |
| 2026-05-06 19:55 | 54.29688 | 9.20807 | 30078 ft | 393 kts | 335° |
| 2026-05-06 19:55 | 54.32198 | 9.19062 | 30580 ft | 392 kts | 331° |
| 2026-05-06 19:55 | 54.34435 | 9.16458 | 31018 ft | 385 kts | 310° |
| 2026-05-06 19:56 | 54.36005 | 9.12795 | 31365 ft | 381 kts | 291° |
| 2026-05-06 19:56 | 54.36998 | 9.08579 | 31730 ft | 381 kts | 287° |
| 2026-05-06 19:56 | 54.37890 | 9.04329 | 32120 ft | 384 kts | 288° |
| 2026-05-06 19:56 | 54.38932 | 9.00095 | 32518 ft | 387 kts | 292° |
| 2026-05-06 19:57 | 54.40153 | 8.95925 | 32802 ft | 393 kts | 294° |
| 2026-05-06 19:57 | 54.41370 | 8.91671 | 33142 ft | 396 kts | 292° |
| 2026-05-06 19:57 | 54.42509 | 8.87340 | 33480 ft | 398 kts | 291° |
| 2026-05-06 19:57 | 54.43635 | 8.83045 | 33889 ft | 400 kts | 292° |
| 2026-05-06 19:58 | 54.44817 | 8.78693 | 34242 ft | 401 kts | 292° |
| 2026-05-06 19:58 | 54.46008 | 8.74328 | 34587 ft | 402 kts | 292° |
| 2026-05-06 19:58 | 54.47180 | 8.69955 | 34894 ft | 405 kts | 291° |
| 2026-05-06 19:58 | 54.48345 | 8.65572 | 34921 ft | 410 kts | 291° |
| 2026-05-06 19:59 | 54.50784 | 8.56450 | 34941 ft | 429 kts | 292° |
| 2026-05-06 19:59 | 54.53319 | 8.46918 | 34945 ft | 449 kts | 292° |
| 2026-05-06 20:00 | 54.55952 | 8.36975 | 34955 ft | 467 kts | 292° |
| 2026-05-06 20:00 | 54.58662 | 8.26707 | 34959 ft | 469 kts | 291° |
| 2026-05-06 20:01 | 54.61360 | 8.16419 | 34963 ft | 470 kts | 291° |
| 2026-05-06 20:01 | 54.64041 | 8.06164 | 34965 ft | 469 kts | 292° |
| 2026-05-06 20:02 | 54.66711 | 7.95898 | 34977 ft | 468 kts | 291° |
| 2026-05-06 20:02 | 54.69361 | 7.85661 | 34976 ft | 468 kts | 291° |
| 2026-05-06 20:03 | 54.72006 | 7.75399 | 34989 ft | 468 kts | 291° |
| 2026-05-06 20:03 | 54.74638 | 7.65138 | 34987 ft | 468 kts | 291° |
| 2026-05-06 20:04 | 54.77279 | 7.54795 | 34990 ft | 469 kts | 291° |
| 2026-05-06 20:04 | 54.79465 | 7.46201 | 34988 ft | 466 kts | 291° |
| 2026-05-06 20:05 | 54.82066 | 7.35924 | 34995 ft | 467 kts | 291° |
| 2026-05-06 20:05 | 54.85098 | 7.23890 | 34998 ft | 467 kts | 291° |
| 2026-05-06 20:06 | 54.87260 | 7.15268 | 35002 ft | 467 kts | 291° |
| 2026-05-06 20:06 | 54.89848 | 7.04904 | 34998 ft | 466 kts | 290° |
| 2026-05-06 20:07 | 54.92410 | 6.94592 | 35004 ft | 466 kts | 290° |
| 2026-05-06 20:07 | 54.94976 | 6.84219 | 35005 ft | 466 kts | 290° |
| 2026-05-06 20:08 | 54.97516 | 6.73905 | 35014 ft | 466 kts | 290° |
| 2026-05-06 20:08 | 55.00065 | 6.63499 | 35017 ft | 466 kts | 290° |
| 2026-05-06 20:09 | 55.02587 | 6.53161 | 35017 ft | 465 kts | 290° |
| 2026-05-06 20:09 | 55.05110 | 6.42765 | 35018 ft | 464 kts | 290° |
| 2026-05-06 20:10 | 55.07611 | 6.32409 | 35027 ft | 464 kts | 290° |
| 2026-05-06 20:10 | 55.10115 | 6.21994 | 35027 ft | 464 kts | 290° |
| 2026-05-06 20:11 | 55.12592 | 6.11642 | 35011 ft | 462 kts | 289° |
| 2026-05-06 20:11 | 55.15068 | 6.01241 | 35026 ft | 463 kts | 289° |
| 2026-05-06 20:12 | 55.17518 | 5.90906 | 35033 ft | 461 kts | 289° |
| 2026-05-06 20:12 | 55.19973 | 5.80492 | 35031 ft | 462 kts | 289° |